createdAt,value
2023-01-11T00:00:36.155Z,4.90
2023-01-11T00:03:04.849Z,5.20
2023-01-11T00:05:32.643Z,5.10
2023-01-11T00:08:00.053Z,5.50
2023-01-11T00:10:33.035Z,5.30
2023-01-11T00:13:01.223Z,5.10
2023-01-11T00:15:28.447Z,4.80
2023-01-11T00:17:56.218Z,4.70
2023-01-11T00:20:24.897Z,4.80
2023-01-11T00:22:52.389Z,5.50
2023-01-11T00:25:20.914Z,5.10
2023-01-11T00:27:49.680Z,3.90
2023-01-11T00:30:18.743Z,4.50
2023-01-11T00:32:46.892Z,6.40
2023-01-11T00:35:14.123Z,6.30
2023-01-11T00:37:41.189Z,5.50
2023-01-11T00:40:09.080Z,5.70
2023-01-11T00:42:55.723Z,5.10
2023-01-11T00:45:41.909Z,5.10
2023-01-11T00:48:10.946Z,7.00
2023-01-11T00:50:40.415Z,5.50
2023-01-11T00:53:11.761Z,5.40
2023-01-11T00:55:39.280Z,5.00
2023-01-11T00:58:10.980Z,5.40
2023-01-11T01:00:38.320Z,5.90
2023-01-11T01:03:07.113Z,4.50
2023-01-11T01:05:37.292Z,5.30
2023-01-11T01:08:04.454Z,5.80
2023-01-11T01:10:32.492Z,4.30
2023-01-11T01:13:26.104Z,4.70
2023-01-11T01:15:58.760Z,5.30
2023-01-11T01:18:27.160Z,6.40
2023-01-11T01:20:54.366Z,4.90
2023-01-11T01:23:21.448Z,4.90
2023-01-11T01:25:48.840Z,4.70
2023-01-11T01:28:16.051Z,7.40
2023-01-11T01:30:44.721Z,4.70
2023-01-11T01:33:13.355Z,5.20
2023-01-11T01:35:43.654Z,5.00
2023-01-11T01:38:13.057Z,5.20
2023-01-11T01:40:43.735Z,5.60
2023-01-11T01:43:16.203Z,5.50
2023-01-11T01:45:45.765Z,5.20
2023-01-11T01:48:15.973Z,5.40
2023-01-11T01:50:53.859Z,6.40
2023-01-11T01:53:30.028Z,5.10
2023-01-11T01:55:58.957Z,4.90
2023-01-11T01:58:33.266Z,6.00
2023-01-11T02:01:20.318Z,7.20
2023-01-11T02:03:47.638Z,5.30
2023-01-11T02:06:17.056Z,5.80
2023-01-11T02:08:45.582Z,7.10
2023-01-11T02:11:30.146Z,6.70
2023-01-11T02:14:03.339Z,5.10
2023-01-11T02:16:31.833Z,6.10
2023-01-11T02:18:59.618Z,6.10
2023-01-11T02:21:57.349Z,4.90
2023-01-11T02:24:48.487Z,4.60
2023-01-11T02:27:39.443Z,4.30
2023-01-11T02:30:32.671Z,5.20
2023-01-11T02:33:07.241Z,4.70
2023-01-11T02:35:52.603Z,5.10
2023-01-11T02:38:33.822Z,4.30
2023-01-11T02:41:10.043Z,5.70
2023-01-11T02:44:21.108Z,4.90
2023-01-11T02:46:49.888Z,4.70
2023-01-11T02:49:40.684Z,4.80
2023-01-11T02:52:19.655Z,5.70
2023-01-11T02:54:48.272Z,5.10
2023-01-11T02:57:16.035Z,3.50
2023-01-11T02:59:44.727Z,4.70
2023-01-11T03:03:49.666Z,4.30
2023-01-11T03:06:20.317Z,5.20
2023-01-11T03:09:08.617Z,4.50
2023-01-11T03:11:57.814Z,4.60
2023-01-11T03:14:48.009Z,4.90
2023-01-11T03:17:30.268Z,5.30
2023-01-11T03:20:32.434Z,5.70
2023-01-11T03:23:18.846Z,6.60
2023-01-11T03:26:23.426Z,4.50
2023-01-11T03:29:06.403Z,4.60
2023-01-11T03:31:53.651Z,6.70
2023-01-11T03:36:59.342Z,6.30
2023-01-11T03:39:36.298Z,6.20
2023-01-11T03:42:07.407Z,6.10
2023-01-11T03:44:42.377Z,5.80
2023-01-11T03:47:13.128Z,4.70
2023-01-11T06:05:02.501Z,5.30
2023-01-11T06:07:30.540Z,5.30
2023-01-11T06:09:59.888Z,5.70
2023-01-11T06:12:27.506Z,5.00
2023-01-11T06:14:59.042Z,5.90
2023-01-11T06:17:27.470Z,5.90
2023-01-11T06:19:56.521Z,5.60
2023-01-11T06:22:26.403Z,5.00
2023-01-11T06:24:53.776Z,7.00
2023-01-11T06:27:25.516Z,7.00
2023-01-11T06:29:53.456Z,7.50
2023-01-11T06:32:21.683Z,8.50
2023-01-11T06:34:49.090Z,5.20
2023-01-11T06:37:16.517Z,6.20
2023-01-11T06:39:44.005Z,6.50
2023-01-11T06:42:11.519Z,6.10
2023-01-11T06:44:38.879Z,6.90
2023-01-11T06:47:07.251Z,7.00
2023-01-11T06:49:36.033Z,6.10
2023-01-11T06:52:07.354Z,6.70
2023-01-11T08:19:33.065Z,6.70
2023-01-11T08:22:01.747Z,5.40
2023-01-11T08:24:31.525Z,8.00
2023-01-11T08:27:03.594Z,6.80
2023-01-11T08:29:32.084Z,6.40
2023-01-11T08:32:03.961Z,7.00
2023-01-11T08:37:02.555Z,7.10
2023-01-11T08:39:33.277Z,7.70
2023-01-11T08:42:02.783Z,6.30
2023-01-11T08:44:34.082Z,7.80
2023-01-11T08:47:05.796Z,6.30
2023-01-11T08:52:01.943Z,5.90
2023-01-11T08:54:30.262Z,7.20
2023-01-11T08:56:59.810Z,9.10
2023-01-11T08:59:28.222Z,6.80
2023-01-11T09:01:57.412Z,9.00
2023-01-11T09:04:26.264Z,8.40
2023-01-11T09:06:55.280Z,7.30
2023-01-11T09:09:24.148Z,7.10
2023-01-11T09:11:54.349Z,6.30
2023-01-11T09:14:24.662Z,9.20
2023-01-11T09:16:53.700Z,8.80
2023-01-11T09:19:21.763Z,11.40
2023-01-11T09:21:51.676Z,8.10
2023-01-11T09:24:21.192Z,10.60
2023-01-11T09:26:51.976Z,10.30
2023-01-11T09:29:22.649Z,11.80
2023-01-11T09:31:51.781Z,6.80
2023-01-11T09:34:26.782Z,8.00
2023-01-11T09:36:59.162Z,9.10
2023-01-11T09:39:29.229Z,8.50
2023-01-11T09:42:25.041Z,11.00
2023-01-11T09:45:23.324Z,7.90
2023-01-11T09:48:26.482Z,6.90
2023-01-11T09:50:56.460Z,7.10
2023-01-11T09:53:37.216Z,7.00
2023-01-11T09:59:19.017Z,8.30
2023-01-11T10:02:00.974Z,7.40
2023-01-11T10:04:41.758Z,7.10
2023-01-11T10:07:51.196Z,8.60
2023-01-11T10:18:22.341Z,5.80
2023-01-11T10:18:27.913Z,6.50
2023-01-11T10:20:48.151Z,6.70
2023-01-11T10:23:24.968Z,8.50
2023-01-11T10:25:56.208Z,6.50
2023-01-11T10:28:33.424Z,6.90
2023-01-11T10:31:30.404Z,6.30
2023-01-11T10:34:32.618Z,7.30
2023-01-11T10:38:04.888Z,6.50
2023-01-11T10:41:03.617Z,7.40
2023-01-11T10:43:35.075Z,6.50
2023-01-11T10:46:11.359Z,6.40
2023-01-11T10:48:42.879Z,8.00
2023-01-11T10:51:26.783Z,8.00
2023-01-11T10:54:06.876Z,7.10
2023-01-11T10:57:02.808Z,6.70
2023-01-11T10:59:46.868Z,6.80
2023-01-11T11:02:51.480Z,7.10
2023-01-11T11:05:27.296Z,7.70
2023-01-11T11:08:10.833Z,6.20
2023-01-11T11:11:37.936Z,6.80
2023-01-11T11:14:28.720Z,7.90
2023-01-11T11:17:25.331Z,7.40
2023-01-11T11:19:52.823Z,10.40
2023-01-11T11:22:20.757Z,7.10
2023-01-11T11:25:05.327Z,6.80
2023-01-11T11:27:49.738Z,8.20
2023-01-11T11:30:37.726Z,8.70
2023-01-11T11:33:31.377Z,8.50
2023-01-11T11:36:10.367Z,8.00
2023-01-11T11:38:39.355Z,7.70
2023-01-11T11:41:18.183Z,8.10
2023-01-11T11:43:50.752Z,7.10
2023-01-11T11:46:29.520Z,9.40
2023-01-11T11:49:17.694Z,7.30
2023-01-11T11:51:50.464Z,6.50
2023-01-11T11:54:29.380Z,8.50
2023-01-11T11:56:57.978Z,7.90
2023-01-11T16:16:40.954Z,16.50
2023-01-11T16:19:15.399Z,13.00
2023-01-11T16:21:43.915Z,12.10
2023-01-11T16:24:17.323Z,10.40
2023-01-11T16:26:44.489Z,11.50
2023-01-11T16:29:20.667Z,10.30
2023-01-11T16:32:20.267Z,11.40
2023-01-11T16:34:56.867Z,9.40
2023-01-11T16:37:58.488Z,9.60
2023-01-11T16:40:40.265Z,11.50
2023-01-11T16:43:28.025Z,9.80
2023-01-11T16:46:05.970Z,11.80
2023-01-11T16:48:40.681Z,12.50
2023-01-11T16:51:17.144Z,9.60
2023-01-11T16:53:58.756Z,11.20
2023-01-11T16:56:29.236Z,11.00
2023-01-11T16:59:47.687Z,11.60
2023-01-11T17:02:29.426Z,12.40
2023-01-11T17:04:58.608Z,9.40
2023-01-11T17:07:34.421Z,9.30
2023-01-11T17:10:24.283Z,8.30
2023-01-11T17:13:08.548Z,8.00
2023-01-11T17:16:12.864Z,9.00
2023-01-11T17:19:05.937Z,10.30
2023-01-11T17:21:46.345Z,10.00
2023-01-11T17:24:17.438Z,9.20
2023-01-11T17:26:46.710Z,8.90
2023-01-11T17:29:36.222Z,7.90
2023-01-11T17:32:10.291Z,11.50
2023-01-11T17:34:40.278Z,11.70
2023-01-11T17:37:25.611Z,12.30
2023-01-11T17:39:58.393Z,14.80
2023-01-11T17:42:44.794Z,13.00
2023-01-11T17:45:29.608Z,15.40
2023-01-11T17:47:59.198Z,12.50
2023-01-11T17:50:33.654Z,11.40
2023-01-11T17:53:20.735Z,12.60
2023-01-11T17:55:56.301Z,10.90
2023-01-11T17:58:28.103Z,10.80
2023-01-11T18:01:08.128Z,9.00
2023-01-11T18:03:48.777Z,12.90
2023-01-11T18:06:34.722Z,11.70
2023-01-11T18:09:04.831Z,12.90
2023-01-11T18:11:40.126Z,10.70
2023-01-11T18:14:18.169Z,11.20
2023-01-11T18:17:03.766Z,11.10
2023-01-11T18:20:22.665Z,13.20
2023-01-11T18:23:25.131Z,12.70
2023-01-11T18:26:35.504Z,10.20
2023-01-11T18:29:39.184Z,11.20
2023-01-11T18:32:09.923Z,10.50
2023-01-11T18:34:39.832Z,8.70
2023-01-11T18:37:09.480Z,10.70
2023-01-11T18:39:36.909Z,11.50
2023-01-11T18:42:15.408Z,9.30
2023-01-11T18:44:45.059Z,10.90
2023-01-11T18:47:22.661Z,12.10
2023-01-11T18:50:07.926Z,12.10
2023-01-11T18:52:37.364Z,10.70
2023-01-11T18:55:05.227Z,10.50
2023-01-11T18:57:35.209Z,9.30
2023-01-11T19:00:04.779Z,10.40
2023-01-11T19:02:45.581Z,11.20
2023-01-11T19:05:38.790Z,10.30
2023-01-11T19:08:32.271Z,9.70
2023-01-11T19:11:03.938Z,10.10
2023-01-11T19:13:36.674Z,11.10
2023-01-11T19:16:05.795Z,15.80
2023-01-11T19:18:35.329Z,9.50
2023-01-11T19:21:10.717Z,10.80
2023-01-11T19:23:41.809Z,10.30
2023-01-11T19:26:13.980Z,11.00
2023-01-11T19:28:43.774Z,9.30
2023-01-11T19:31:14.868Z,8.90
2023-01-11T19:33:44.513Z,11.60
2023-01-11T19:36:14.370Z,11.30
2023-01-11T19:38:44.281Z,10.70
2023-01-11T19:41:15.536Z,12.50
2023-01-11T19:43:47.436Z,15.20
2023-01-11T19:46:30.726Z,11.70
2023-01-11T19:49:31.401Z,10.90
2023-01-11T19:52:00.694Z,10.50
2023-01-11T19:54:30.507Z,9.50
2023-01-11T19:56:58.701Z,11.00
2023-01-11T19:59:27.681Z,9.80
2023-01-11T22:08:54.117Z,13.70
2023-01-11T22:11:23.648Z,13.00
2023-01-11T22:13:52.020Z,13.00
2023-01-11T22:16:24.282Z,14.90
2023-01-11T22:18:52.859Z,12.80
2023-01-11T22:21:22.300Z,15.50
2023-01-11T22:24:05.601Z,13.00
2023-01-11T22:26:52.868Z,13.60
2023-01-11T22:29:30.550Z,12.70
2023-01-11T22:32:20.543Z,13.00
2023-01-11T22:35:02.999Z,13.10
2023-01-11T22:37:37.677Z,12.30
2023-01-11T22:40:28.660Z,11.80
2023-01-11T22:43:04.095Z,11.50
2023-01-11T22:45:33.137Z,12.80
2023-01-11T22:48:00.421Z,13.20
2023-01-11T22:50:31.689Z,11.90
2023-01-11T22:53:00.983Z,12.10
2023-01-11T22:55:34.493Z,13.50
2023-01-11T22:58:01.692Z,11.10
2023-01-11T23:00:30.622Z,13.10
2023-01-11T23:03:00.203Z,12.90
2023-01-11T23:05:28.513Z,12.00
2023-01-11T23:07:56.214Z,11.70
2023-01-11T23:10:25.193Z,12.50
2023-01-11T23:13:11.768Z,13.10
2023-01-11T23:15:39.800Z,12.50
2023-01-11T23:18:09.151Z,13.30
2023-01-11T23:20:43.208Z,12.50
2023-01-11T23:23:11.233Z,13.70
2023-01-11T23:25:43.080Z,10.90
2023-01-11T23:28:11.413Z,12.70
2023-01-11T23:30:38.825Z,13.00
2023-01-11T23:33:10.868Z,11.30
2023-01-11T23:35:42.542Z,11.30
2023-01-11T23:38:09.878Z,12.50
2023-01-11T23:40:57.928Z,12.60
2023-01-11T23:43:25.387Z,11.40
2023-01-11T23:46:13.564Z,10.60
2023-01-11T23:48:41.208Z,12.20
2023-01-11T23:51:08.297Z,11.00
2023-01-11T23:53:36.706Z,11.70
2023-01-11T23:56:05.113Z,12.40
2023-01-11T23:58:32.717Z,9.80
